createdAt,value
2019-02-10T00:02:54.250Z,84.60
2019-02-10T00:05:56.890Z,84.76
2019-02-10T00:08:59.584Z,83.95
2019-02-10T00:12:02.269Z,84.72
2019-02-10T00:15:05.130Z,84.40
2019-02-10T00:18:07.850Z,84.05
2019-02-10T00:21:10.474Z,84.44
2019-02-10T00:24:13.195Z,84.62
2019-02-10T00:27:15.860Z,85.41
2019-02-10T00:30:18.520Z,85.37
2019-02-10T00:33:22.371Z,85.58
2019-02-10T00:36:32.657Z,84.74
2019-02-10T00:39:29.563Z,85.61
2019-02-10T00:42:32.370Z,85.59
2019-02-10T00:45:35.055Z,85.74
2019-02-10T00:48:37.725Z,86.60
2019-02-10T00:51:41.524Z,85.97
2019-02-10T00:54:44.286Z,86.43
2019-02-10T00:57:46.887Z,86.15
2019-02-10T01:00:49.512Z,86.21
2019-02-10T01:03:52.193Z,85.93
2019-02-10T01:06:54.831Z,87.30
2019-02-10T01:09:57.476Z,86.78
2019-02-10T01:13:01.176Z,87.17
2019-02-10T01:16:03.841Z,87.57
2019-02-10T01:19:08.260Z,87.44
2019-02-10T01:22:11.897Z,87.52
2019-02-10T01:25:14.710Z,88.29
2019-02-10T01:28:17.396Z,88.46
2019-02-10T01:31:20.034Z,89.45
2019-02-10T01:34:22.643Z,89.60
2019-02-10T01:37:25.433Z,88.84
2019-02-10T01:40:28.160Z,90.00
2019-02-10T01:43:30.730Z,90.42
2019-02-10T01:46:33.492Z,92.00
2019-02-10T01:49:36.076Z,91.90
2019-02-10T01:52:38.844Z,93.66
2019-02-10T01:55:41.594Z,92.75
2019-02-10T01:58:45.218Z,91.05
2019-02-10T02:01:47.936Z,91.05
2019-02-10T02:04:50.570Z,90.86
2019-02-10T02:07:53.194Z,90.15
2019-02-10T02:10:55.822Z,91.71
2019-02-10T02:13:58.547Z,93.12
2019-02-10T02:17:01.297Z,92.99
2019-02-10T02:20:05.300Z,93.60
2019-02-10T02:23:07.920Z,93.92
2019-02-10T02:26:10.496Z,95.06
2019-02-10T02:29:13.014Z,91.05
2019-02-10T02:32:15.696Z,89.53
2019-02-10T02:35:18.289Z,88.61
2019-02-10T02:38:20.870Z,87.47
2019-02-10T02:41:23.416Z,86.78
2019-02-10T02:44:26.100Z,88.75
2019-02-10T02:47:28.744Z,88.83
2019-02-10T02:50:31.436Z,88.14
2019-02-10T02:53:34.227Z,87.46
2019-02-10T02:56:36.936Z,85.27
2019-02-10T02:59:39.508Z,86.26
2019-02-10T03:02:42.154Z,85.50
2019-02-10T03:05:44.761Z,86.14
2019-02-10T03:08:47.389Z,85.89
2019-02-10T03:11:50.056Z,84.92
2019-02-10T03:14:52.810Z,84.82
2019-02-10T03:17:55.499Z,85.03
2019-02-10T03:20:58.199Z,83.89
2019-02-10T03:24:00.835Z,85.06
2019-02-10T03:27:03.551Z,84.98
2019-02-10T03:30:06.689Z,85.43
2019-02-10T03:33:09.337Z,85.64
2019-02-10T03:36:12.034Z,85.76
2019-02-10T03:39:14.604Z,84.63
2019-02-10T03:42:17.547Z,84.05
2019-02-10T03:45:20.195Z,83.70
2019-02-10T03:48:22.881Z,84.79
2019-02-10T03:51:25.574Z,85.03
2019-02-10T03:54:28.323Z,85.18
2019-02-10T03:57:31.123Z,84.45
2019-02-10T04:00:33.873Z,85.40
2019-02-10T04:03:36.426Z,85.27
2019-02-10T04:06:39.219Z,87.40
2019-02-10T04:09:41.780Z,87.33
2019-02-10T04:12:44.501Z,87.02
2019-02-10T04:15:47.110Z,86.56
2019-02-10T04:18:49.839Z,87.30
2019-02-10T04:21:52.558Z,87.07
2019-02-10T04:24:55.182Z,89.20
2019-02-10T04:27:58.100Z,90.65
2019-02-10T04:31:00.866Z,90.04
2019-02-10T04:34:03.519Z,91.19
2019-02-10T04:37:06.208Z,93.80
2019-02-10T04:40:09.700Z,95.77
2019-02-10T04:43:12.325Z,95.70
2019-02-10T04:46:14.969Z,98.33
2019-02-10T04:49:17.545Z,96.89
2019-02-10T04:52:20.223Z,98.26
2019-02-10T04:55:22.874Z,99.17
2019-02-10T04:58:25.610Z,98.72
2019-02-10T05:01:28.270Z,97.23
2019-02-10T05:04:30.936Z,99.75
2019-02-10T05:07:33.636Z,99.32
2019-02-10T05:10:36.390Z,98.67
2019-02-10T05:13:38.995Z,98.50
2019-02-10T05:16:41.550Z,99.82
2019-02-10T05:19:44.263Z,100.48
2019-02-10T05:22:46.940Z,99.88
2019-02-10T05:25:51.769Z,100.81
2019-02-10T05:28:54.409Z,101.92
2019-02-10T05:31:58.108Z,101.67
2019-02-10T05:35:00.729Z,101.11
2019-02-10T05:38:04.542Z,102.28
2019-02-10T05:41:07.359Z,103.17
2019-02-10T05:44:10.038Z,102.20
2019-02-10T05:47:13.541Z,102.23
2019-02-10T05:50:16.213Z,102.59
2019-02-10T05:53:18.838Z,102.84
2019-02-10T05:56:21.401Z,102.41
2019-02-10T05:59:24.131Z,103.05
2019-02-10T06:02:36.441Z,102.78
2019-02-10T06:05:39.000Z,101.56
2019-02-10T06:08:41.604Z,99.85
2019-02-10T06:11:44.199Z,100.05
2019-02-10T06:14:46.800Z,100.57
2019-02-10T06:17:49.386Z,100.72
2019-02-10T06:20:51.936Z,101.20
2019-02-10T06:23:54.678Z,101.04
2019-02-10T06:26:57.455Z,101.81
2019-02-10T06:30:00.329Z,101.85
2019-02-10T06:33:03.078Z,101.94
2019-02-10T06:36:05.690Z,102.44
2019-02-10T06:39:08.440Z,102.37
2019-02-10T06:42:11.079Z,102.59
2019-02-10T06:45:13.786Z,102.94
2019-02-10T06:48:16.457Z,103.78
2019-02-10T06:51:19.165Z,102.94
2019-02-10T06:54:22.014Z,103.06
2019-02-10T06:57:25.703Z,102.97
2019-02-10T07:00:57.073Z,102.80
2019-02-10T07:04:27.969Z,102.72
2019-02-10T07:07:30.675Z,103.65
2019-02-10T07:10:33.315Z,103.99
2019-02-10T07:13:38.479Z,104.39
2019-02-10T07:17:16.464Z,104.77
2019-02-10T07:20:39.869Z,104.70
2019-02-10T07:24:20.274Z,105.13
2019-02-10T07:27:28.577Z,105.25
2019-02-10T07:30:45.699Z,104.42
2019-02-10T07:34:27.565Z,105.11
2019-02-10T07:37:37.984Z,104.73
2019-02-10T07:41:30.219Z,104.98
2019-02-10T07:45:03.658Z,104.58
2019-02-10T07:48:39.537Z,104.79
2019-02-10T07:52:27.199Z,104.35
2019-02-10T07:56:10.467Z,104.90
2019-02-10T07:59:50.448Z,105.71
2019-02-10T08:03:23.733Z,105.13
2019-02-10T08:06:57.112Z,104.93
2019-02-10T08:10:48.272Z,104.55
2019-02-10T08:14:36.152Z,104.17
2019-02-10T08:18:35.493Z,104.20
2019-02-10T08:22:07.668Z,104.39
2019-02-10T08:26:10.614Z,104.29
2019-02-10T08:30:07.378Z,103.87
2019-02-10T08:33:17.885Z,103.59
2019-02-10T08:36:58.208Z,103.13
2019-02-10T08:40:53.760Z,103.89
2019-02-10T08:44:46.983Z,104.02
2019-02-10T08:48:24.835Z,103.81
2019-02-10T08:52:17.933Z,103.44
2019-02-10T08:55:20.518Z,103.20
2019-02-10T08:58:23.227Z,103.23
2019-02-10T09:01:25.853Z,103.56
2019-02-10T09:04:30.749Z,104.09
2019-02-10T09:07:33.327Z,104.14
2019-02-10T09:10:36.011Z,104.21
2019-02-10T09:13:40.467Z,103.08
2019-02-10T09:16:43.322Z,102.26
2019-02-10T09:19:46.068Z,103.00
2019-02-10T09:22:48.757Z,103.05
2019-02-10T09:25:51.464Z,102.98
2019-02-10T09:28:54.253Z,102.81
2019-02-10T09:31:56.888Z,103.42
2019-02-10T09:34:59.742Z,103.65
2019-02-10T09:38:02.433Z,104.00
2019-02-10T09:41:05.034Z,103.87
2019-02-10T09:44:07.980Z,103.98
2019-02-10T09:47:10.559Z,104.44
2019-02-10T09:50:15.712Z,104.65
2019-02-10T09:53:18.530Z,105.29
2019-02-10T09:56:21.174Z,105.42
2019-02-10T09:59:23.905Z,104.88
2019-02-10T10:02:26.683Z,105.00
2019-02-10T10:05:29.271Z,104.95
2019-02-10T10:08:32.006Z,105.13
2019-02-10T10:11:34.753Z,105.00
2019-02-10T10:14:37.488Z,105.22
2019-02-10T10:17:40.113Z,105.10
2019-02-10T10:20:42.848Z,104.61
2019-02-10T10:23:45.538Z,104.21
2019-02-10T10:26:48.284Z,103.88
2019-02-10T10:29:50.867Z,103.88
2019-02-10T10:32:54.457Z,103.72
2019-02-10T10:35:57.243Z,103.99
2019-02-10T10:38:59.950Z,104.80
2019-02-10T10:42:02.667Z,103.00
2019-02-10T10:45:05.917Z,102.97
2019-02-10T10:48:08.592Z,103.74
2019-02-10T10:51:11.324Z,102.78
2019-02-10T10:54:13.968Z,102.63
2019-02-10T10:57:16.653Z,103.41
2019-02-10T11:00:19.244Z,104.13
2019-02-10T11:03:21.858Z,105.33
2019-02-10T11:06:24.538Z,106.01
2019-02-10T11:09:35.257Z,106.16
2019-02-10T11:12:31.673Z,104.90
2019-02-10T11:15:34.358Z,104.57
2019-02-10T11:18:37.102Z,103.04
2019-02-10T11:21:39.842Z,102.92
2019-02-10T11:24:42.417Z,101.04
2019-02-10T11:27:45.083Z,101.60
2019-02-10T11:30:47.834Z,100.62
2019-02-10T11:33:50.517Z,100.52
2019-02-10T11:36:55.118Z,99.86
2019-02-10T11:39:57.642Z,100.57
2019-02-10T11:43:00.257Z,100.33
2019-02-10T11:46:04.098Z,100.63
2019-02-10T11:49:06.763Z,101.85
2019-02-10T11:52:09.371Z,102.37
2019-02-10T11:55:12.133Z,102.65
2019-02-10T11:58:14.840Z,103.17
2019-02-10T12:01:17.507Z,103.43
2019-02-10T12:04:20.112Z,103.26
2019-02-10T12:07:23.672Z,102.94
2019-02-10T12:10:26.293Z,103.14
2019-02-10T12:13:29.003Z,103.10
2019-02-10T12:16:31.613Z,102.94
2019-02-10T12:19:35.907Z,102.39
2019-02-10T12:22:38.691Z,102.96
2019-02-10T12:25:41.508Z,103.54
2019-02-10T12:28:44.172Z,103.02
2019-02-10T12:31:46.903Z,102.74
2019-02-10T12:34:49.675Z,103.29
2019-02-10T12:37:52.392Z,102.91
2019-02-10T12:40:55.087Z,103.43
2019-02-10T12:43:57.891Z,103.98
2019-02-10T12:47:00.665Z,103.27
2019-02-10T12:50:03.878Z,103.34
2019-02-10T12:53:06.581Z,103.13
2019-02-10T12:56:10.278Z,102.49
2019-02-10T12:59:13.046Z,103.33
2019-02-10T13:02:15.908Z,103.92
2019-02-10T13:05:18.531Z,103.58
2019-02-10T13:08:21.287Z,103.39
2019-02-10T13:11:23.969Z,103.47
2019-02-10T13:14:26.677Z,103.19
2019-02-10T13:17:29.470Z,103.81
2019-02-10T13:20:34.002Z,103.17
2019-02-10T13:23:36.744Z,103.36
2019-02-10T13:26:39.568Z,102.70
2019-02-10T13:29:42.394Z,101.49
2019-02-10T13:32:45.137Z,101.09
2019-02-10T13:35:47.881Z,100.69
2019-02-10T13:38:50.603Z,101.16
2019-02-10T13:41:52.303Z,100.86
2019-02-10T13:44:55.076Z,100.82
2019-02-10T13:47:57.826Z,100.91
2019-02-10T13:51:00.517Z,101.04
2019-02-10T13:54:04.354Z,101.44
2019-02-10T13:57:07.166Z,100.95
2019-02-10T14:00:12.536Z,101.32
2019-02-10T14:03:15.190Z,101.62
2019-02-10T14:06:17.847Z,103.26
2019-02-10T14:09:20.522Z,103.96
2019-02-10T14:12:23.256Z,103.76
2019-02-10T14:15:25.955Z,104.77
2019-02-10T14:18:28.666Z,104.32
2019-02-10T14:21:31.348Z,102.24
2019-02-10T14:24:33.992Z,102.41
2019-02-10T14:27:36.625Z,100.48
2019-02-10T14:30:39.431Z,100.23
2019-02-10T14:33:42.147Z,99.30
2019-02-10T14:36:44.741Z,98.23
2019-02-10T14:39:47.618Z,98.85
2019-02-10T14:42:50.496Z,95.77
2019-02-10T14:45:53.256Z,96.61
2019-02-10T14:48:56.060Z,95.54
2019-02-10T14:51:58.867Z,96.54
2019-02-10T14:55:01.690Z,96.27
2019-02-10T14:58:04.437Z,94.76
2019-02-10T15:01:07.326Z,96.62
2019-02-10T15:04:10.010Z,94.93
2019-02-10T15:07:12.667Z,95.35
2019-02-10T15:10:15.485Z,95.67
2019-02-10T15:13:18.104Z,95.47
2019-02-10T15:16:20.832Z,95.56
2019-02-10T15:19:23.413Z,95.35
2019-02-10T15:22:26.146Z,94.08
2019-02-10T15:25:28.771Z,94.23
2019-02-10T15:28:31.521Z,93.41
2019-02-10T15:31:34.267Z,91.51
2019-02-10T15:34:36.946Z,92.21
2019-02-10T15:37:39.668Z,92.83
2019-02-10T15:40:49.670Z,92.28
2019-02-10T15:43:46.995Z,92.36
2019-02-10T15:46:49.967Z,92.51
2019-02-10T15:49:52.707Z,92.74
2019-02-10T15:52:55.699Z,92.69
2019-02-10T15:55:58.507Z,92.22
2019-02-10T15:59:01.327Z,93.12
2019-02-10T16:02:04.019Z,92.81
2019-02-10T16:05:06.786Z,92.63
2019-02-10T16:08:11.916Z,92.61
2019-02-10T16:11:14.565Z,90.94
2019-02-10T16:14:17.215Z,90.75
2019-02-10T16:17:19.762Z,91.23
2019-02-10T16:20:22.488Z,89.91
2019-02-10T16:23:25.088Z,91.14
2019-02-10T16:26:27.911Z,91.42
2019-02-10T16:29:30.526Z,90.54
2019-02-10T16:32:33.187Z,91.44
2019-02-10T16:35:35.941Z,92.75
2019-02-10T16:38:38.592Z,91.67
2019-02-10T16:41:41.217Z,91.47
2019-02-10T16:44:43.942Z,90.91
2019-02-10T16:47:46.652Z,91.42
2019-02-10T16:50:49.304Z,91.07
2019-02-10T16:53:52.196Z,92.17
2019-02-10T16:56:54.924Z,93.23
2019-02-10T16:59:58.227Z,93.22
2019-02-10T17:03:01.002Z,93.17
2019-02-10T17:06:03.704Z,94.08
2019-02-10T17:09:06.572Z,94.09
2019-02-10T17:12:10.336Z,93.61
2019-02-10T17:15:13.010Z,93.19
2019-02-10T17:18:15.724Z,93.26
2019-02-10T17:21:18.426Z,94.00
2019-02-10T17:24:21.107Z,94.44
2019-02-10T17:27:23.752Z,94.50
2019-02-10T17:30:27.010Z,94.06
2019-02-10T17:33:29.810Z,95.19
2019-02-10T17:36:32.422Z,96.86
2019-02-10T17:39:35.061Z,97.12
2019-02-10T17:42:37.902Z,97.95
2019-02-10T17:45:40.616Z,98.76
2019-02-10T17:48:43.379Z,99.24
2019-02-10T17:51:46.215Z,99.14
2019-02-10T17:54:50.232Z,99.50
2019-02-10T17:57:54.051Z,99.74
2019-02-10T18:00:56.772Z,101.17
2019-02-10T18:03:59.510Z,101.45
2019-02-10T18:07:02.256Z,103.07
2019-02-10T18:10:05.999Z,104.36
2019-02-10T18:13:10.379Z,104.04
2019-02-10T18:16:38.711Z,104.84
2019-02-10T18:19:47.582Z,105.71
2019-02-10T18:23:05.959Z,105.43
2019-02-10T18:26:20.620Z,105.58
2019-02-10T18:29:54.959Z,105.52
2019-02-10T18:33:12.172Z,106.13
2019-02-10T18:36:25.919Z,106.47
2019-02-10T18:39:54.137Z,106.84
2019-02-10T18:43:15.160Z,106.60
2019-02-10T18:46:37.395Z,106.77
2019-02-10T18:49:51.151Z,107.34
2019-02-10T18:53:25.250Z,107.66
2019-02-10T18:56:38.154Z,107.70
2019-02-10T18:59:50.379Z,107.51
2019-02-10T19:03:15.629Z,107.84
2019-02-10T19:06:53.064Z,107.22
2019-02-10T19:10:04.969Z,105.30
2019-02-10T19:13:30.215Z,103.62
2019-02-10T19:16:55.294Z,103.49
2019-02-10T19:20:17.545Z,102.51
2019-02-10T19:23:38.365Z,101.48
2019-02-10T19:27:03.667Z,101.74
2019-02-10T19:30:26.465Z,101.11
2019-02-10T19:33:48.395Z,100.51
2019-02-10T19:37:07.451Z,100.78
2019-02-10T19:40:38.630Z,100.24
2019-02-10T19:44:10.164Z,100.55
2019-02-10T19:47:35.295Z,99.95
2019-02-10T19:50:58.566Z,100.62
2019-02-10T19:54:06.322Z,101.35
2019-02-10T19:57:27.329Z,100.28
2019-02-10T20:00:49.456Z,101.04
2019-02-10T20:04:03.875Z,100.82
2019-02-10T20:07:24.801Z,101.72
2019-02-10T20:10:45.720Z,101.38
2019-02-10T20:14:06.909Z,102.36
2019-02-10T20:17:44.484Z,102.71
2019-02-10T20:20:56.520Z,102.24
2019-02-10T20:24:21.630Z,102.39
2019-02-10T20:27:40.305Z,102.04
2019-02-10T20:31:05.985Z,102.72
2019-02-10T20:34:25.160Z,102.79
2019-02-10T20:37:45.473Z,102.46
2019-02-10T20:40:54.188Z,103.46
2019-02-10T20:44:28.460Z,103.64
2019-02-10T20:47:39.275Z,104.48
2019-02-10T20:51:08.180Z,104.19
2019-02-10T20:54:19.658Z,104.00
2019-02-10T20:57:40.364Z,104.35
2019-02-10T21:01:01.290Z,104.94
2019-02-10T21:04:23.619Z,105.38
2019-02-10T21:07:43.320Z,105.39
2019-02-10T21:11:08.044Z,105.30
2019-02-10T21:14:28.968Z,104.89
2019-02-10T21:17:50.973Z,104.93
2019-02-10T21:21:13.129Z,104.61
2019-02-10T21:24:29.454Z,104.91
2019-02-10T21:27:59.482Z,105.07
2019-02-10T21:31:13.458Z,105.55
2019-02-10T21:34:30.833Z,105.48
2019-02-10T21:38:10.843Z,105.98
2019-02-10T21:41:32.970Z,105.90
2019-02-10T21:44:54.050Z,105.97
2019-02-10T21:48:28.599Z,106.29
2019-02-10T21:51:31.284Z,106.67
2019-02-10T21:54:33.933Z,106.16
2019-02-10T21:57:36.604Z,106.45
2019-02-10T22:00:39.514Z,106.43
2019-02-10T22:03:42.155Z,106.89
2019-02-10T22:06:44.938Z,106.64
2019-02-10T22:09:47.635Z,106.57
2019-02-10T22:12:51.504Z,106.52
2019-02-10T22:15:54.143Z,106.87
2019-02-10T22:18:58.114Z,107.19
2019-02-10T22:22:00.788Z,107.14
2019-02-10T22:25:03.747Z,107.11
2019-02-10T22:28:08.358Z,106.64
2019-02-10T22:31:18.482Z,107.03
2019-02-10T22:34:15.432Z,107.79
2019-02-10T22:37:18.120Z,107.59
2019-02-10T22:40:20.835Z,107.58
2019-02-10T22:43:23.509Z,107.96
2019-02-10T22:46:26.249Z,107.83
2019-02-10T22:49:28.978Z,107.54
2019-02-10T22:52:31.733Z,107.12
2019-02-10T22:55:34.556Z,107.06
2019-02-10T22:58:37.189Z,107.01
2019-02-10T23:01:39.883Z,106.67
2019-02-10T23:04:42.523Z,106.45
2019-02-10T23:07:46.583Z,106.33
2019-02-10T23:10:49.258Z,106.19
2019-02-10T23:13:55.153Z,105.73
2019-02-10T23:16:57.917Z,105.83
2019-02-10T23:20:00.735Z,104.99
2019-02-10T23:23:03.596Z,105.19
2019-02-10T23:26:06.371Z,105.58
2019-02-10T23:29:09.102Z,106.22
2019-02-10T23:32:11.829Z,106.14
2019-02-10T23:35:14.564Z,105.61
2019-02-10T23:38:17.164Z,105.15
2019-02-10T23:41:20.008Z,105.80
2019-02-10T23:44:22.653Z,105.80
2019-02-10T23:47:25.214Z,106.03
2019-02-10T23:50:27.799Z,106.38
2019-02-10T23:53:32.495Z,107.16
2019-02-10T23:56:35.108Z,107.15
2019-02-10T23:59:37.807Z,106.03
